logo dgac
Lunes 19 de Abril del 2021
Buscar por aerodromo o helipuerto
Ingrese nombre de aeródromo, localidad o designador OACI:

Aeródromo: Balmaceda (PUB) (SCBA)

Ubicación: Balmaceda, XI Región, Chile (45º 54' 51'' S, 71º 41' 24'' W) Ver ubicación en el mapa

Pistas

Orientación Dimensión Pendiente Superficie Resistencia APCH THR RWY PAPI
09/27 2501 x 45 0,67 Hormigón PCN 47 R/B/X/T No
Horas de operación HJ
Elevación 509 m / 1670 ft
Otra Información Adm : D.G.A.C
Uso : PUB
Ubicado : 500 m S de Balmaceda
TEL 672272126 - 672272104 -672272105
email : aro.balmaceda@dgac.gob.cl

Otra información ver AIP-Chile Volumen I AD 3.9-2.1-B


CCCM/FCCV Descargar
andera de Chile
Mapa de Balmaceda (PUB) (SCBA)

Último METAR

METAR SCBA 190500Z 30013KT 9999 SCT030 BKN066 11/08 Q0999

Último TAF

TAF SCBA 191053Z 1912/2012 VRB02KT 8000 -RA OVC020 TX11/1914Z TN02/2011Z BECMG 1915/1917 30015KT 9999 NSW SCT030 BKN080 BECMG 2002/2004 VRB02KT SCT070 BKN200

Últimas fotos cámaras

Imagen aerodromo Balmaceda (PUB) (SCBA) Este tomada el 19-04-2021 11:29:40 Imagen aerodromo Balmaceda (PUB) (SCBA) Oeste tomada el 19-04-2021 11:31:16

Último NOTAM

C1601/21 NOTAMN Q)SCTZ/QXXAH/IV/NBO/A/000/999/4555S07141W005 A)SCBA B)2104041330 C)2106182200 D)DLY BTN 1330-2200 E)COVID-19. HR ATTN ADUANA SANITARIA. ACFT NO ITINERANTES DEBERAN COOR 2 HR BFR. O/R COOR AL EMAIL: ADUANASANITARIA11(ARROBA)REDSALUD.GOV.CL